createdAt,value
2019-02-06T00:00:57.215Z,32.37
2019-02-06T00:03:30.056Z,34.50
2019-02-06T00:06:03.589Z,31.97
2019-02-06T00:08:36.073Z,31.87
2019-02-06T00:11:08.829Z,34.27
2019-02-06T00:13:41.439Z,30.43
2019-02-06T00:16:14.332Z,30.57
2019-02-06T00:18:46.947Z,31.20
2019-02-06T00:21:20.607Z,33.63
2019-02-06T00:23:53.234Z,32.10
2019-02-06T00:26:25.957Z,32.37
2019-02-06T00:28:58.506Z,32.60
2019-02-06T00:31:31.255Z,33.43
2019-02-06T01:34:56.624Z,31.70
2019-02-06T02:38:04.987Z,32.07
2019-02-06T03:21:13.320Z,32.10
2019-02-06T03:27:32.747Z,30.90
2019-02-06T04:17:59.044Z,26.37
2019-02-06T04:46:27.655Z,29.37
2019-02-06T05:17:55.944Z,26.53
2019-02-06T06:30:47.451Z,32.07
2019-02-06T06:42:05.858Z,34.00
2019-02-06T06:44:37.372Z,35.00
2019-02-06T06:47:09.057Z,34.20
2019-02-06T06:49:41.029Z,35.83
2019-02-06T06:52:12.684Z,35.10
2019-02-06T06:54:44.246Z,33.00
2019-02-06T06:57:15.673Z,35.10
2019-02-06T06:59:47.339Z,34.27
2019-02-06T07:02:19.286Z,35.43
2019-02-06T07:04:50.805Z,36.63
2019-02-06T07:07:22.407Z,35.00
2019-02-06T07:09:53.902Z,36.03
2019-02-06T07:12:25.311Z,34.67
2019-02-06T07:14:56.891Z,34.70
2019-02-06T07:17:28.510Z,36.03
2019-02-06T07:19:59.902Z,35.63
2019-02-06T07:22:31.342Z,35.97
2019-02-06T07:25:03.214Z,35.67
2019-02-06T07:27:34.771Z,34.63
2019-02-06T07:30:10.508Z,36.33
2019-02-06T07:32:42.012Z,35.40
2019-02-06T07:35:13.544Z,35.47
2019-02-06T07:37:45.230Z,34.67
2019-02-06T07:40:17.373Z,36.20
2019-02-06T07:42:48.947Z,36.23
2019-02-06T07:45:21.425Z,35.57
2019-02-06T07:47:52.920Z,35.27
2019-02-06T07:50:27.872Z,34.57
2019-02-06T07:52:59.596Z,33.93
2019-02-06T07:55:31.389Z,35.03
2019-02-06T07:58:02.831Z,33.67
2019-02-06T08:00:34.689Z,35.27
2019-02-06T08:03:06.327Z,34.33
2019-02-06T08:05:38.242Z,35.23
2019-02-06T08:08:09.728Z,36.70
2019-02-06T08:10:41.370Z,36.30
2019-02-06T08:13:12.852Z,36.10
2019-02-06T08:15:44.475Z,37.13
2019-02-06T08:18:15.864Z,38.30
2019-02-06T08:20:47.396Z,38.10
2019-02-06T08:23:19.018Z,37.47
2019-02-06T08:25:50.416Z,37.67
2019-02-06T08:28:22.012Z,34.77
2019-02-06T08:30:53.502Z,34.47
2019-02-06T08:33:25.181Z,35.03
2019-02-06T08:35:56.696Z,34.00
2019-02-06T08:38:28.386Z,34.83
2019-02-06T08:41:00.113Z,32.57
2019-02-06T08:43:31.793Z,33.50
2019-02-06T08:46:03.221Z,32.70
2019-02-06T08:48:34.801Z,31.30
2019-02-06T08:51:06.201Z,32.63
2019-02-06T08:53:37.734Z,32.13
2019-02-06T08:56:09.410Z,30.33
2019-02-06T08:58:41.079Z,31.20
2019-02-06T09:01:12.643Z,31.97
2019-02-06T09:03:44.367Z,30.00
2019-02-06T09:06:15.741Z,30.87
2019-02-06T09:08:58.936Z,29.83
2019-02-06T09:11:20.483Z,29.53
2019-02-06T09:13:51.610Z,30.53
2019-02-06T09:16:22.717Z,31.50
2019-02-06T09:18:54.055Z,29.60
2019-02-06T09:21:25.645Z,27.97
2019-02-06T09:23:57.838Z,27.93
2019-02-06T09:26:29.390Z,27.67
2019-02-06T09:29:01.026Z,26.13
2019-02-06T09:31:36.959Z,25.30
2019-02-06T09:34:09.803Z,22.50
2019-02-06T09:36:41.622Z,24.13
2019-02-06T09:39:13.530Z,22.60
2019-02-06T09:41:45.035Z,22.60
2019-02-06T09:44:16.561Z,22.90
2019-02-06T09:46:48.258Z,22.67
2019-02-06T09:49:20.170Z,22.33
2019-02-06T09:51:51.604Z,25.33
2019-02-06T09:54:23.239Z,25.20
2019-02-06T09:56:54.692Z,27.10
2019-02-06T09:59:26.216Z,26.07
2019-02-06T10:01:58.206Z,27.80
2019-02-06T10:04:29.828Z,27.53
2019-02-06T10:07:01.297Z,22.70
2019-02-06T10:09:32.763Z,21.33
2019-02-06T10:12:04.304Z,19.00
2019-02-06T10:14:36.278Z,21.93
2019-02-06T10:17:07.835Z,19.53
2019-02-06T10:19:42.347Z,23.23
2019-02-06T10:22:13.397Z,20.40
2019-02-06T10:24:45.068Z,21.47
2019-02-06T10:27:17.117Z,19.40
2019-02-06T10:29:48.761Z,19.60
2019-02-06T10:32:20.376Z,17.57
2019-02-06T10:34:53.927Z,18.37
2019-02-06T10:37:25.586Z,19.60
2019-02-06T10:39:58.884Z,19.03
2019-02-06T10:42:30.443Z,18.07
2019-02-06T10:45:02.162Z,19.37
2019-02-06T10:47:33.630Z,16.50
2019-02-06T10:50:07.774Z,16.03
2019-02-06T10:52:39.327Z,16.73
2019-02-06T10:55:11.479Z,16.93
2019-02-06T10:57:43.024Z,14.43
2019-02-06T11:00:40.339Z,16.43
2019-02-06T11:03:12.410Z,14.93
2019-02-06T11:05:45.277Z,13.73
2019-02-06T11:08:16.953Z,14.47
2019-02-06T11:10:48.844Z,14.40
2019-02-06T11:13:20.884Z,14.87
2019-02-06T11:15:52.579Z,13.63
2019-02-06T11:18:26.806Z,15.80
2019-02-06T11:20:58.309Z,15.60
2019-02-06T11:23:30.044Z,13.60
2019-02-06T11:26:01.776Z,13.77
2019-02-06T11:28:33.367Z,14.27
2019-02-06T11:31:05.014Z,13.23
2019-02-06T11:33:37.322Z,13.47
2019-02-06T11:36:09.229Z,13.80
2019-02-06T11:38:42.379Z,13.43
2019-02-06T11:41:18.991Z,13.43
2019-02-06T11:43:53.604Z,11.57
2019-02-06T11:46:30.192Z,12.83
2019-02-06T11:49:02.899Z,12.17
2019-02-06T11:51:42.926Z,12.23
2019-02-06T11:54:15.241Z,13.00
2019-02-06T11:56:46.894Z,12.13
2019-02-06T11:59:18.738Z,12.17
2019-02-06T12:01:53.491Z,10.13
2019-02-06T12:04:26.092Z,10.07
2019-02-06T12:06:58.483Z,9.97
2019-02-06T12:09:29.966Z,10.73
2019-02-06T12:12:01.650Z,10.43
2019-02-06T12:14:33.260Z,14.00
2019-02-06T12:17:04.910Z,11.50
2019-02-06T12:19:36.558Z,13.03
2019-02-06T12:22:08.306Z,17.23
2019-02-06T12:24:39.993Z,15.83
2019-02-06T12:27:11.646Z,23.30
2019-02-06T12:29:43.203Z,21.03
2019-02-06T12:32:14.814Z,18.13
2019-02-06T12:34:46.407Z,16.10
2019-02-06T12:37:17.986Z,15.10
2019-02-06T12:39:49.424Z,13.40
2019-02-06T12:42:21.130Z,15.27
2019-02-06T12:44:52.515Z,21.60
2019-02-06T12:47:26.817Z,28.30
2019-02-06T12:49:57.497Z,26.03
2019-02-06T12:52:29.159Z,39.70
2019-02-06T12:55:00.678Z,42.87
2019-02-06T12:57:37.282Z,46.80
2019-02-06T13:00:07.771Z,46.07
2019-02-06T13:02:39.294Z,47.20
2019-02-06T13:05:11.776Z,51.70
2019-02-06T13:07:43.240Z,46.40
2019-02-06T13:10:15.890Z,43.57
2019-02-06T13:12:47.560Z,47.90
2019-02-06T13:15:19.186Z,43.30
2019-02-06T13:17:50.842Z,47.23
2019-02-06T13:20:25.314Z,40.03
2019-02-06T13:22:57.252Z,45.03
2019-02-06T13:25:28.916Z,40.20
2019-02-06T13:28:00.600Z,43.50
2019-02-06T13:30:35.617Z,38.03
2019-02-06T13:33:11.434Z,38.70
2019-02-06T13:35:41.669Z,30.77
2019-02-06T13:38:13.315Z,28.80
2019-02-06T13:40:46.075Z,33.30
2019-02-06T13:43:17.911Z,27.27
2019-02-06T13:45:50.350Z,29.10
2019-02-06T13:48:21.883Z,32.20
2019-02-06T13:50:53.516Z,31.90
2019-02-06T13:53:25.241Z,31.20
2019-02-06T13:55:56.856Z,29.87
2019-02-06T13:58:28.584Z,27.47
2019-02-06T14:01:00.384Z,30.27
2019-02-06T14:03:32.003Z,28.47
2019-02-06T14:06:03.684Z,28.70
2019-02-06T14:08:35.221Z,28.00
2019-02-06T14:11:06.707Z,28.80
2019-02-06T14:13:38.537Z,30.97
2019-02-06T14:16:10.620Z,30.00
2019-02-06T14:18:42.153Z,30.00
2019-02-06T14:21:13.705Z,28.70
2019-02-06T14:24:26.743Z,30.40
2019-02-06T14:28:03.226Z,27.23
2019-02-06T14:31:14.090Z,25.10
2019-02-06T14:34:44.941Z,28.07
2019-02-06T14:38:06.017Z,28.90
2019-02-06T14:41:08.556Z,28.33
2019-02-06T14:44:13.464Z,28.37
2019-02-06T14:47:43.897Z,27.53
2019-02-06T14:51:02.244Z,27.43
2019-02-06T14:54:22.433Z,25.00
2019-02-06T14:57:59.834Z,23.03
2019-02-06T15:01:21.746Z,24.63
2019-02-06T15:04:56.391Z,24.10
2019-02-06T15:07:47.399Z,25.10
2019-02-06T15:11:05.473Z,25.70
2019-02-06T15:14:31.883Z,26.27
2019-02-06T15:17:53.785Z,25.80
2019-02-06T15:21:15.217Z,24.23
2019-02-06T15:24:53.764Z,24.13
2019-02-06T15:28:11.238Z,25.70
2019-02-06T15:31:31.427Z,26.63
2019-02-06T15:34:48.315Z,24.23
2019-02-06T15:38:22.010Z,23.57
2019-02-06T15:41:55.411Z,23.23
2019-02-06T15:45:20.105Z,24.13
2019-02-06T15:48:12.929Z,24.93
2019-02-06T15:51:32.943Z,27.23
2019-02-06T15:54:52.726Z,24.07
2019-02-06T15:58:15.072Z,24.77
2019-02-06T16:02:00.604Z,26.40
2019-02-06T16:05:56.381Z,22.13
2019-02-06T16:09:02.412Z,23.13
2019-02-06T16:12:26.223Z,24.27
2019-02-06T16:15:48.765Z,26.20
2019-02-06T16:18:55.732Z,28.57
2019-02-06T16:22:00.698Z,32.17
2019-02-06T16:25:27.536Z,33.60
2019-02-06T16:29:13.711Z,34.70
2019-02-06T16:32:32.092Z,31.83
2019-02-06T16:36:08.256Z,32.50
2019-02-06T16:38:56.038Z,27.67
2019-02-06T16:42:11.668Z,33.27
2019-02-06T16:45:45.582Z,32.47
2019-02-06T16:49:28.408Z,31.07
2019-02-06T16:52:47.066Z,29.77
2019-02-06T16:57:00.388Z,30.80
2019-02-06T17:00:52.748Z,28.63
2019-02-06T17:04:11.305Z,66.53
2019-02-06T17:07:52.305Z,50.13
2019-02-06T17:11:40.524Z,44.67
2019-02-06T17:15:17.858Z,41.70
2019-02-06T17:18:43.532Z,44.20
2019-02-06T17:22:22.076Z,52.97
2019-02-06T17:26:08.285Z,43.43
2019-02-06T17:29:22.330Z,42.73
2019-02-06T17:32:34.123Z,51.20
2019-02-06T17:35:35.798Z,50.07
2019-02-06T17:39:09.389Z,58.60
2019-02-06T17:42:19.568Z,52.00
2019-02-06T17:45:38.098Z,60.43
2019-02-06T17:48:28.392Z,58.33
2019-02-06T17:51:58.709Z,68.10
2019-02-06T17:55:23.218Z,64.90
2019-02-06T17:58:01.685Z,61.13
2019-02-06T18:00:42.626Z,65.30
2019-02-06T18:03:15.093Z,68.50
2019-02-06T18:05:46.996Z,75.13
2019-02-06T18:08:18.695Z,73.87
2019-02-06T18:10:50.584Z,70.00
2019-02-06T18:13:22.336Z,70.87
2019-02-06T18:15:53.821Z,73.53
2019-02-06T18:18:25.717Z,69.13
2019-02-06T18:20:57.144Z,68.10
2019-02-06T18:23:28.710Z,68.80
2019-02-06T18:26:00.276Z,71.53
2019-02-06T18:28:31.820Z,70.03
2019-02-06T18:31:03.690Z,70.43
2019-02-06T18:33:35.350Z,72.07
2019-02-06T18:36:07.681Z,65.43
2019-02-06T18:38:46.679Z,71.77
2019-02-06T18:41:15.688Z,69.63
2019-02-06T18:43:47.156Z,79.40
2019-02-06T18:46:19.166Z,73.90
2019-02-06T18:48:50.625Z,70.10
2019-02-06T18:51:22.288Z,70.70
2019-02-06T18:53:53.701Z,68.60
2019-02-06T18:56:25.213Z,75.30
2019-02-06T18:58:56.804Z,70.43
2019-02-06T19:01:28.688Z,74.10
2019-02-06T19:04:00.280Z,74.93
2019-02-06T19:06:31.769Z,75.93
2019-02-06T19:09:03.849Z,77.40
2019-02-06T19:11:35.495Z,72.50
2019-02-06T19:14:08.188Z,74.63
2019-02-06T19:16:40.432Z,79.90
2019-02-06T19:19:12.185Z,73.93
2019-02-06T19:21:43.803Z,72.17
2019-02-06T19:24:17.794Z,78.13
2019-02-06T19:26:48.528Z,68.57
2019-02-06T19:29:20.123Z,71.27
2019-02-06T19:31:51.679Z,69.57
2019-02-06T19:34:23.248Z,68.23
2019-02-06T19:36:54.771Z,70.60
2019-02-06T19:39:26.555Z,69.10
2019-02-06T19:41:58.089Z,70.73
2019-02-06T19:44:29.874Z,69.47
2019-02-06T19:47:01.386Z,70.47
2019-02-06T19:49:32.954Z,74.93
2019-02-06T19:52:04.088Z,72.50
2019-02-06T19:54:35.188Z,76.27
2019-02-06T19:57:06.463Z,72.90
2019-02-06T19:59:37.854Z,85.23
2019-02-06T20:02:09.047Z,83.37
2019-02-06T20:04:40.140Z,78.13
2019-02-06T20:07:11.328Z,83.07
2019-02-06T20:09:42.500Z,84.20
2019-02-06T20:12:13.615Z,81.17
2019-02-06T20:14:45.187Z,83.33
2019-02-06T20:17:16.291Z,80.37
2019-02-06T20:19:47.453Z,89.10
2019-02-06T20:22:23.142Z,89.37
2019-02-06T20:24:58.090Z,84.50
2019-02-06T20:27:30.946Z,78.90
2019-02-06T20:30:02.662Z,74.67
2019-02-06T20:32:34.694Z,75.77
2019-02-06T20:35:09.796Z,76.27
2019-02-06T20:37:46.368Z,87.93
2019-02-06T20:40:26.842Z,89.80
2019-02-06T20:43:02.258Z,91.93
2019-02-06T20:45:37.243Z,87.70
2019-02-06T20:48:12.397Z,82.90
2019-02-06T20:50:47.741Z,94.00
2019-02-06T20:53:21.966Z,92.23
2019-02-06T20:55:58.363Z,93.03
2019-02-06T20:58:29.737Z,98.30
2019-02-06T21:01:01.038Z,93.77
2019-02-06T21:03:32.212Z,99.63
2019-02-06T21:06:03.351Z,98.40
2019-02-06T21:08:34.604Z,94.47
2019-02-06T21:11:06.228Z,92.13
2019-02-06T21:13:37.429Z,114.87
2019-02-06T21:16:09.139Z,104.20
2019-02-06T21:18:40.799Z,97.63
2019-02-06T21:21:11.950Z,103.73
2019-02-06T21:23:43.161Z,111.17
2019-02-06T21:26:19.087Z,96.80
2019-02-06T21:29:00.778Z,97.27
2019-02-06T21:31:32.307Z,100.47
2019-02-06T21:34:05.901Z,93.13
2019-02-06T21:36:36.422Z,99.37
2019-02-06T21:39:11.147Z,92.60
2019-02-06T21:41:42.731Z,107.67
2019-02-06T21:44:14.253Z,98.50
2019-02-06T21:46:45.632Z,111.43
2019-02-06T21:49:17.359Z,106.00
2019-02-06T21:51:51.742Z,95.23
2019-02-06T21:54:23.121Z,108.30
2019-02-06T21:56:54.719Z,115.57
2019-02-06T21:59:26.420Z,106.73
2019-02-06T22:01:57.855Z,115.17
2019-02-06T22:04:29.626Z,121.40
2019-02-06T22:07:01.023Z,119.30
2019-02-06T22:09:32.733Z,126.53
2019-02-06T22:12:05.747Z,136.13
2019-02-06T22:14:37.324Z,124.40
2019-02-06T22:17:08.863Z,125.70
2019-02-06T22:19:40.576Z,132.30
2019-02-06T22:22:12.111Z,134.83
2019-02-06T22:24:43.420Z,115.97
2019-02-06T22:27:14.943Z,121.93
2019-02-06T22:29:46.117Z,105.53
2019-02-06T22:32:17.202Z,104.17
2019-02-06T22:34:48.324Z,102.77
2019-02-06T22:37:22.474Z,108.80
2019-02-06T22:39:55.798Z,118.70
2019-02-06T22:42:27.582Z,102.53
2019-02-06T22:44:59.029Z,98.60
2019-02-06T22:47:30.399Z,108.47
2019-02-06T22:50:01.994Z,117.07
2019-02-06T22:52:33.390Z,112.10
2019-02-06T22:55:06.035Z,112.03
2019-02-06T22:57:37.716Z,130.00
2019-02-06T23:00:54.785Z,123.60
2019-02-06T23:03:33.492Z,143.93
2019-02-06T23:06:06.100Z,143.87
2019-02-06T23:08:37.591Z,146.27
2019-02-06T23:11:09.488Z,152.83
2019-02-06T23:13:41.146Z,170.10
2019-02-06T23:16:13.815Z,155.43
2019-02-06T23:18:46.386Z,142.10
2019-02-06T23:21:22.314Z,166.07
2019-02-06T23:23:54.596Z,148.47
2019-02-06T23:26:26.226Z,162.63
2019-02-06T23:28:57.779Z,164.97
2019-02-06T23:31:29.199Z,167.27
2019-02-06T23:34:01.005Z,162.60
2019-02-06T23:36:32.546Z,153.73
2019-02-06T23:39:05.775Z,111.13
2019-02-06T23:41:37.294Z,137.73
2019-02-06T23:44:08.832Z,94.77
2019-02-06T23:46:40.482Z,128.97
2019-02-06T23:49:11.970Z,119.43
2019-02-06T23:51:43.686Z,110.27
2019-02-06T23:54:15.179Z,103.97
2019-02-06T23:56:46.899Z,104.10
2019-02-06T23:59:18.489Z,106.80
